sensor_id;sensor_type;location;lat;lon;timestamp;pressure;altitude;pressure_sealevel;temperature;humidity
31357;BME280;60001;48.404;11.738;2023-02-15T00:00:37;97691.88;;;-0.04;90.25
31357;BME280;60001;48.404;11.738;2023-02-15T00:02:08;97695.94;;;-0.02;90.33
31357;BME280;60001;48.404;11.738;2023-02-15T00:03:40;97698.44;;;0.00;89.92
31357;BME280;60001;48.404;11.738;2023-02-15T00:05:12;97700.06;;;0.01;89.98
31357;BME280;60001;48.404;11.738;2023-02-15T00:06:44;97695.66;;;0.02;89.88
31357;BME280;60001;48.404;11.738;2023-02-15T00:08:16;97696.63;;;0.01;89.89
31357;BME280;60001;48.404;11.738;2023-02-15T00:09:48;97685.88;;;-0.05;89.83
31357;BME280;60001;48.404;11.738;2023-02-15T00:11:21;97686.84;;;-0.06;89.74
31357;BME280;60001;48.404;11.738;2023-02-15T00:13:07;97684.38;;;-0.07;90.53
31357;BME280;60001;48.404;11.738;2023-02-15T00:14:39;97684.09;;;-0.04;90.27
31357;BME280;60001;48.404;11.738;2023-02-15T00:16:11;97683.13;;;-0.03;90.83
31357;BME280;60001;48.404;11.738;2023-02-15T00:17:43;97678.31;;;0.02;91.07
31357;BME280;60001;48.404;11.738;2023-02-15T00:19:17;97685.94;;;0.04;91.12
31357;BME280;60001;48.404;11.738;2023-02-15T00:20:49;97677.34;;;0.03;90.66
31357;BME280;60001;48.404;11.738;2023-02-15T00:22:21;97675.72;;;0.02;91.00
31357;BME280;60001;48.404;11.738;2023-02-15T00:23:52;97673.47;;;0.07;91.45
31357;BME280;60001;48.404;11.738;2023-02-15T00:25:24;97667.44;;;0.07;91.29
31357;BME280;60001;48.404;11.738;2023-02-15T00:26:57;97664.72;;;0.08;90.61
31357;BME280;60001;48.404;11.738;2023-02-15T00:28:29;97666.84;;;0.13;90.96
31357;BME280;60001;48.404;11.738;2023-02-15T00:30:01;97672.19;;;0.11;90.98
31357;BME280;60001;48.404;11.738;2023-02-15T00:31:33;97666.34;;;0.09;90.16
31357;BME280;60001;48.404;11.738;2023-02-15T00:33:05;97664.72;;;0.08;90.56
31357;BME280;60001;48.404;11.738;2023-02-15T00:34:37;97671.97;;;0.05;90.31
31357;BME280;60001;48.404;11.738;2023-02-15T00:36:10;97666.28;;;0.01;89.81
31357;BME280;60001;48.404;11.738;2023-02-15T00:37:41;97661.09;;;0.01;89.93
31357;BME280;60001;48.404;11.738;2023-02-15T00:39:13;97668.72;;;0.03;90.08
31357;BME280;60001;48.404;11.738;2023-02-15T00:40:44;97667.91;;;0.02;90.70
31357;BME280;60001;48.404;11.738;2023-02-15T00:42:24;97662.19;;;-0.02;90.58
31357;BME280;60001;48.404;11.738;2023-02-15T00:43:56;97657.69;;;0.01;90.23
31357;BME280;60001;48.404;11.738;2023-02-15T00:45:27;97663.69;;;0.01;90.95
31357;BME280;60001;48.404;11.738;2023-02-15T00:46:59;97659.97;;;0.04;90.20
31357;BME280;60001;48.404;11.738;2023-02-15T00:48:31;97659.16;;;0.03;90.42
31357;BME280;60001;48.404;11.738;2023-02-15T00:50:03;97660.78;;;0.04;89.93
31357;BME280;60001;48.404;11.738;2023-02-15T00:51:35;97655.75;;;0.03;90.17
31357;BME280;60001;48.404;11.738;2023-02-15T00:53:07;97655.91;;;0.01;90.03
31357;BME280;60001;48.404;11.738;2023-02-15T00:54:38;97644.03;;;-0.02;90.35
31357;BME280;60001;48.404;11.738;2023-02-15T00:56:11;97657.22;;;0.05;90.63
31357;BME280;60001;48.404;11.738;2023-02-15T00:57:43;97651.38;;;0.03;90.21
31357;BME280;60001;48.404;11.738;2023-02-15T00:59:15;97649.44;;;0.05;90.74
31357;BME280;60001;48.404;11.738;2023-02-15T01:00:47;97641.38;;;-0.10;90.58
31357;BME280;60001;48.404;11.738;2023-02-15T01:02:19;97647.75;;;-0.04;90.20
31357;BME280;60001;48.404;11.738;2023-02-15T01:03:51;97661.38;;;-0.02;90.74
31357;BME280;60001;48.404;11.738;2023-02-15T01:05:22;97656.19;;;-0.02;90.91
31357;BME280;60001;48.404;11.738;2023-02-15T01:06:54;97658.78;;;-0.02;90.67
31357;BME280;60001;48.404;11.738;2023-02-15T01:08:26;97648.94;;;-0.16;90.38
31357;BME280;60001;48.404;11.738;2023-02-15T01:09:57;97655.94;;;-0.17;90.00
31357;BME280;60001;48.404;11.738;2023-02-15T01:11:29;97655.94;;;-0.17;89.85
31357;BME280;60001;48.404;11.738;2023-02-15T01:13:02;97645.47;;;-0.25;90.32
31357;BME280;60001;48.404;11.738;2023-02-15T01:14:33;97644.09;;;-0.37;90.01
31357;BME280;60001;48.404;11.738;2023-02-15T01:16:05;97645.50;;;-0.43;90.68
31357;BME280;60001;48.404;11.738;2023-02-15T01:17:37;97644.19;;;-0.47;90.97
31357;BME280;60001;48.404;11.738;2023-02-15T01:19:08;97640.66;;;-0.38;90.94
31357;BME280;60001;48.404;11.738;2023-02-15T01:20:40;97639.09;;;-0.31;91.51
31357;BME280;60001;48.404;11.738;2023-02-15T01:22:12;97625.16;;;-0.30;90.86
31357;BME280;60001;48.404;11.738;2023-02-15T01:23:44;97636.22;;;-0.28;91.14
31357;BME280;60001;48.404;11.738;2023-02-15T01:25:16;97630.50;;;-0.31;90.73
31357;BME280;60001;48.404;11.738;2023-02-15T01:26:47;97631.31;;;-0.31;90.74
31357;BME280;60001;48.404;11.738;2023-02-15T01:28:20;97628.44;;;-0.28;91.16
31357;BME280;60001;48.404;11.738;2023-02-15T01:29:51;97630.66;;;-0.33;90.96
31357;BME280;60001;48.404;11.738;2023-02-15T01:31:23;97632.94;;;-0.30;90.88
31357;BME280;60001;48.404;11.738;2023-02-15T01:32:55;97630.94;;;-0.36;91.01
31357;BME280;60001;48.404;11.738;2023-02-15T01:34:26;97622.56;;;-0.30;91.30
31357;BME280;60001;48.404;11.738;2023-02-15T01:35:59;97624.88;;;-0.26;90.76
31357;BME280;60001;48.404;11.738;2023-02-15T01:37:30;97619.38;;;-0.23;91.15
31357;BME280;60001;48.404;11.738;2023-02-15T01:39:02;97623.09;;;-0.26;90.78
31357;BME280;60001;48.404;11.738;2023-02-15T01:40:34;97618.56;;;-0.24;91.16
31357;BME280;60001;48.404;11.738;2023-02-15T01:42:09;97615.38;;;-0.36;90.76
31357;BME280;60001;48.404;11.738;2023-02-15T01:43:47;97613.97;;;-0.30;90.88
31357;BME280;60001;48.404;11.738;2023-02-15T01:45:23;97611.22;;;-0.29;90.32
31357;BME280;60001;48.404;11.738;2023-02-15T01:46:55;97614.50;;;-0.26;90.54
31357;BME280;60001;48.404;11.738;2023-02-15T01:48:27;97607.53;;;-0.26;90.36
31357;BME280;60001;48.404;11.738;2023-02-15T01:50:07;97608.50;;;-0.27;90.46
31357;BME280;60001;48.404;11.738;2023-02-15T01:51:42;97602.06;;;-0.41;90.36
31357;BME280;60001;48.404;11.738;2023-02-15T01:53:21;97602.28;;;-0.34;90.68
31357;BME280;60001;48.404;11.738;2023-02-15T01:54:52;97601.75;;;-0.38;90.01
31357;BME280;60001;48.404;11.738;2023-02-15T01:56:29;97594.94;;;-0.39;91.04
31357;BME280;60001;48.404;11.738;2023-02-15T01:58:02;97597.38;;;-0.37;90.62
31357;BME280;60001;48.404;11.738;2023-02-15T01:59:38;97594.78;;;-0.37;91.04
31357;BME280;60001;48.404;11.738;2023-02-15T02:01:11;97594.50;;;-0.34;90.98
31357;BME280;60001;48.404;11.738;2023-02-15T02:02:46;97583.94;;;-0.33;91.09
31357;BME280;60001;48.404;11.738;2023-02-15T02:04:26;97589.19;;;-0.24;91.04
31357;BME280;60001;48.404;11.738;2023-02-15T02:06:01;97590.66;;;-0.22;90.79
31357;BME280;60001;48.404;11.738;2023-02-15T02:07:36;97579.78;;;-0.25;90.57
31357;BME280;60001;48.404;11.738;2023-02-15T02:09:09;97579.56;;;-0.32;89.90
31357;BME280;60001;48.404;11.738;2023-02-15T02:10:41;97570.31;;;-0.35;90.58
31357;BME280;60001;48.404;11.738;2023-02-15T02:12:15;97576.81;;;-0.31;90.60
31357;BME280;60001;48.404;11.738;2023-02-15T02:13:51;97567.72;;;-0.35;90.59
31357;BME280;60001;48.404;11.738;2023-02-15T02:15:36;97574.06;;;-0.29;90.77
31357;BME280;60001;48.404;11.738;2023-02-15T02:17:16;97567.19;;;-0.38;90.20
31357;BME280;60001;48.404;11.738;2023-02-15T02:19:05;97578.09;;;-0.35;90.47
31357;BME280;60001;48.404;11.738;2023-02-15T02:23:15;97579.56;;;-0.32;91.04
31357;BME280;60001;48.404;11.738;2023-02-15T02:25:10;97581.03;;;-0.30;90.28
31357;BME280;60001;48.404;11.738;2023-02-15T02:27:12;97583.47;;;-0.28;90.86
31357;BME280;60001;48.404;11.738;2023-02-15T02:29:13;97587.41;;;-0.24;90.52
31357;BME280;60001;48.404;11.738;2023-02-15T02:31:10;97583.34;;;-0.26;89.84
31357;BME280;60001;48.404;11.738;2023-02-15T02:33:16;97578.91;;;-0.34;90.63
31357;BME280;60001;48.404;11.738;2023-02-15T02:34:58;97586.91;;;-0.28;90.51
31357;BME280;60001;48.404;11.738;2023-02-15T02:36:41;97583.34;;;-0.26;90.76
31357;BME280;60001;48.404;11.738;2023-02-15T02:38:26;97583.03;;;-0.23;90.07
31357;BME280;60001;48.404;11.738;2023-02-15T02:40:04;97582.75;;;-0.20;90.31
31357;BME280;60001;48.404;11.738;2023-02-15T02:41:50;97589.56;;;-0.19;90.88
31357;BME280;60001;48.404;11.738;2023-02-15T02:43:35;97581.78;;;-0.19;90.33
31357;BME280;60001;48.404;11.738;2023-02-15T02:45:15;97580.81;;;-0.18;90.63
31357;BME280;60001;48.404;11.738;2023-02-15T02:46:54;97580.81;;;-0.18;90.58
31357;BME280;60001;48.404;11.738;2023-02-15T02:48:33;97574.31;;;-0.14;90.21
31357;BME280;60001;48.404;11.738;2023-02-15T02:50:06;97569.66;;;-0.11;89.92
31357;BME280;60001;48.404;11.738;2023-02-15T02:51:38;97569.66;;;-0.11;90.22
31357;BME280;60001;48.404;11.738;2023-02-15T02:53:10;97570.31;;;-0.09;90.15
31357;BME280;60001;48.404;11.738;2023-02-15T02:54:42;97554.53;;;-0.15;90.29
31357;BME280;60001;48.404;11.738;2023-02-15T02:56:21;97566.44;;;-0.05;90.10
31357;BME280;60001;48.404;11.738;2023-02-15T02:58:01;97561.25;;;-0.05;89.97
31357;BME280;60001;48.404;11.738;2023-02-15T02:59:41;97556.06;;;-0.05;90.16
31357;BME280;60001;48.404;11.738;2023-02-15T03:01:22;97555.03;;;-0.12;89.86
31357;BME280;60001;48.404;11.738;2023-02-15T03:03:00;97552.25;;;-0.18;90.23
31357;BME280;60001;48.404;11.738;2023-02-15T03:04:40;97559.06;;;-0.17;89.73
31357;BME280;60001;48.404;11.738;2023-02-15T03:06:17;97553.22;;;-0.19;90.54
31357;BME280;60001;48.404;11.738;2023-02-15T03:07:53;97565.44;;;-0.12;89.95
31357;BME280;60001;48.404;11.738;2023-02-15T03:09:30;97569.50;;;-0.09;90.16
31357;BME280;60001;48.404;11.738;2023-02-15T03:11:15;97568.03;;;-0.12;90.58
31357;BME280;60001;48.404;11.738;2023-02-15T03:12:48;97574.41;;;-0.06;90.42
31357;BME280;60001;48.404;11.738;2023-02-15T03:14:19;97571.94;;;-0.08;89.75
31357;BME280;60001;48.404;11.738;2023-02-15T03:15:52;97568.03;;;-0.12;90.06
31357;BME280;60001;48.404;11.738;2023-02-15T03:17:46;97566.00;;;-0.26;90.23
31357;BME280;60001;48.404;11.738;2023-02-15T03:19:23;97562.78;;;-0.20;89.84
31357;BME280;60001;48.404;11.738;2023-02-15T03:21:03;97562.78;;;-0.20;90.83
31357;BME280;60001;48.404;11.738;2023-02-15T03:22:40;97555.50;;;-0.16;90.04
31357;BME280;60001;48.404;11.738;2023-02-15T03:24:17;97565.59;;;-0.13;90.05
31357;BME280;60001;48.404;11.738;2023-02-15T03:25:57;97559.44;;;-0.12;90.18
31357;BME280;60001;48.404;11.738;2023-02-15T03:27:35;97557.47;;;-0.10;91.01
31357;BME280;60001;48.404;11.738;2023-02-15T03:29:11;97562.69;;;-0.10;90.12
31357;BME280;60001;48.404;11.738;2023-02-15T03:30:49;97563.31;;;-0.08;90.80
31357;BME280;60001;48.404;11.738;2023-02-15T03:32:28;97559.91;;;-0.09;90.57
31357;BME280;60001;48.404;11.738;2023-02-15T03:34:04;97562.69;;;-0.10;90.42
31357;BME280;60001;48.404;11.738;2023-02-15T03:35:45;97551.13;;;-0.16;90.07
31357;BME280;60001;48.404;11.738;2023-02-15T03:37:28;97556.66;;;-0.11;90.22
31357;BME280;60001;48.404;11.738;2023-02-15T03:39:10;97552.50;;;-0.30;90.95
31357;BME280;60001;48.404;11.738;2023-02-15T03:40:47;97562.47;;;-0.17;90.52
31357;BME280;60001;48.404;11.738;2023-02-15T03:42:39;97571.44;;;-0.11;90.78
31357;BME280;60001;48.404;11.738;2023-02-15T03:44:16;97568.31;;;-0.15;89.95
31357;BME280;60001;48.404;11.738;2023-02-15T03:45:55;97569.28;;;-0.16;89.98
31357;BME280;60001;48.404;11.738;2023-02-15T03:47:33;97576.78;;;-0.13;89.70
31357;BME280;60001;48.404;11.738;2023-02-15T03:49:10;97577.44;;;-0.11;89.72
31357;BME280;60001;48.404;11.738;2023-02-15T03:50:45;97584.09;;;-0.08;89.86
31357;BME280;60001;48.404;11.738;2023-02-15T03:52:37;97580.03;;;-0.11;90.31
31357;BME280;60001;48.404;11.738;2023-02-15T03:54:12;97573.50;;;-0.15;89.70
31357;BME280;60001;48.404;11.738;2023-02-15T03:56:05;97581.63;;;-0.18;89.60
31357;BME280;60001;48.404;11.738;2023-02-15T03:57:36;97572.38;;;-0.20;89.64
31357;BME280;60001;48.404;11.738;2023-02-15T03:59:29;97573.81;;;-0.18;90.02
31357;BME280;60001;48.404;11.738;2023-02-15T04:01:26;97570.41;;;-0.18;90.48
31357;BME280;60001;48.404;11.738;2023-02-15T04:07:15;97571.06;;;-0.16;90.02
31357;BME280;60001;48.404;11.738;2023-02-15T04:08:47;97571.72;;;-0.14;90.37
31357;BME280;60001;48.404;11.738;2023-02-15T04:10:36;97571.59;;;-0.13;90.10
31357;BME280;60001;48.404;11.738;2023-02-15T04:12:23;97571.59;;;-0.13;89.70
31357;BME280;60001;48.404;11.738;2023-02-15T04:13:55;97569.66;;;-0.11;89.97
31357;BME280;60001;48.404;11.738;2023-02-15T04:15:27;97570.63;;;-0.12;89.92
31357;BME280;60001;48.404;11.738;2023-02-15T04:17:17;97570.91;;;-0.15;89.23
31357;BME280;60001;48.404;11.738;2023-02-15T04:18:48;97571.69;;;-0.22;89.27
31357;BME280;60001;48.404;11.738;2023-02-15T04:20:38;97577.25;;;-0.17;89.68
31357;BME280;60001;48.404;11.738;2023-02-15T04:22:29;97570.41;;;-0.18;89.92
31357;BME280;60001;48.404;11.738;2023-02-15T04:24:18;97567.63;;;-0.25;89.92
31357;BME280;60001;48.404;11.738;2023-02-15T04:26:07;97559.94;;;-0.35;89.70
31357;BME280;60001;48.404;11.738;2023-02-15T04:27:41;97566.59;;;-0.32;89.53
31357;BME280;60001;48.404;11.738;2023-02-15T04:29:14;97563.03;;;-0.31;89.95
31357;BME280;60001;48.404;11.738;2023-02-15T04:30:46;97562.88;;;-0.30;89.55
31357;BME280;60001;48.404;11.738;2023-02-15T04:32:18;97560.81;;;-0.26;89.76
31357;BME280;60001;48.404;11.738;2023-02-15T04:33:49;97564.38;;;-0.27;89.82
31357;BME280;60001;48.404;11.738;2023-02-15T04:35:21;97556.72;;;-0.29;89.56
31357;BME280;60001;48.404;11.738;2023-02-15T04:36:53;97557.88;;;-0.23;89.44
31357;BME280;60001;48.404;11.738;2023-02-15T04:38:25;97563.59;;;-0.19;89.43
31357;BME280;60001;48.404;11.738;2023-02-15T04:39:57;97557.72;;;-0.21;89.35
31357;BME280;60001;48.404;11.738;2023-02-15T04:41:29;97560.66;;;-0.24;89.42
31357;BME280;60001;48.404;11.738;2023-02-15T04:43:02;97560.28;;;-0.30;88.77
31357;BME280;60001;48.404;11.738;2023-02-15T04:44:33;97565.78;;;-0.33;88.73
31357;BME280;60001;48.404;11.738;2023-02-15T04:46:05;97560.59;;;-0.33;89.27
31357;BME280;60001;48.404;11.738;2023-02-15T04:47:37;97558.00;;;-0.33;89.35
31357;BME280;60001;48.404;11.738;2023-02-15T04:49:09;97558.00;;;-0.33;89.54
31357;BME280;60001;48.404;11.738;2023-02-15T04:50:41;97558.66;;;-0.31;89.78
31357;BME280;60001;48.404;11.738;2023-02-15T04:52:13;97551.69;;;-0.30;89.41
31357;BME280;60001;48.404;11.738;2023-02-15T04:53:46;97555.09;;;-0.30;89.07
31357;BME280;60001;48.404;11.738;2023-02-15T04:55:18;97549.25;;;-0.32;89.04
31357;BME280;60001;48.404;11.738;2023-02-15T04:56:49;97557.41;;;-0.26;89.80
31357;BME280;60001;48.404;11.738;2023-02-15T04:58:20;97556.09;;;-0.22;89.29
31357;BME280;60001;48.404;11.738;2023-02-15T04:59:52;97558.53;;;-0.21;88.92
31357;BME280;60001;48.404;11.738;2023-02-15T05:01:24;97564.56;;;-0.20;88.92
31357;BME280;60001;48.404;11.738;2023-02-15T05:02:56;97559.50;;;-0.22;88.81
31357;BME280;60001;48.404;11.738;2023-02-15T05:04:28;97559.03;;;-0.25;88.79
31357;BME280;60001;48.404;11.738;2023-02-15T05:06:00;97559.50;;;-0.22;89.26
31357;BME280;60001;48.404;11.738;2023-02-15T05:07:32;97559.84;;;-0.25;88.97
31357;BME280;60001;48.404;11.738;2023-02-15T05:09:05;97556.41;;;-0.25;88.72
31357;BME280;60001;48.404;11.738;2023-02-15T05:10:38;97559.19;;;-0.27;88.59
31357;BME280;60001;48.404;11.738;2023-02-15T05:12:10;97564.22;;;-0.25;89.29
31357;BME280;60001;48.404;11.738;2023-02-15T05:13:42;97563.41;;;-0.26;88.94
31357;BME280;60001;48.404;11.738;2023-02-15T05:15:14;97568.88;;;-0.29;88.86
31357;BME280;60001;48.404;11.738;2023-02-15T05:16:46;97561.41;;;-0.32;88.86
31357;BME280;60001;48.404;11.738;2023-02-15T05:18:17;97562.72;;;-0.28;89.25
31357;BME280;60001;48.404;11.738;2023-02-15T05:19:49;97572.44;;;-0.30;88.17
31357;BME280;60001;48.404;11.738;2023-02-15T05:21:21;97571.06;;;-0.42;87.63
31357;BME280;60001;48.404;11.738;2023-02-15T05:22:53;97570.72;;;-0.47;87.99
31357;BME280;60001;48.404;11.738;2023-02-15T05:24:26;97571.38;;;-0.45;88.08
31357;BME280;60001;48.404;11.738;2023-02-15T05:26:23;97567.66;;;-0.43;88.41
31357;BME280;60001;48.404;11.738;2023-02-15T05:28:12;97573.97;;;-0.45;88.38
31357;BME280;60001;48.404;11.738;2023-02-15T05:29:53;97561.75;;;-0.53;88.47
31357;BME280;60001;48.404;11.738;2023-02-15T05:31:25;97577.53;;;-0.46;89.20
31357;BME280;60001;48.404;11.738;2023-02-15T05:32:57;97576.41;;;-0.44;88.43
31357;BME280;60001;48.404;11.738;2023-02-15T05:34:29;97574.78;;;-0.45;88.93
31357;BME280;60001;48.404;11.738;2023-02-15T05:36:02;97577.59;;;-0.56;88.18
31357;BME280;60001;48.404;11.738;2023-02-15T05:37:34;97572.41;;;-0.56;88.63
31357;BME280;60001;48.404;11.738;2023-02-15T05:39:06;97567.38;;;-0.58;88.22
31357;BME280;60001;48.404;11.738;2023-02-15T05:40:40;97570.78;;;-0.57;88.25
31357;BME280;60001;48.404;11.738;2023-02-15T05:42:12;97574.34;;;-0.58;88.57
31357;BME280;60001;48.404;11.738;2023-02-15T05:43:43;97575.16;;;-0.58;88.78
31357;BME280;60001;48.404;11.738;2023-02-15T05:45:15;97570.13;;;-0.59;88.59
31357;BME280;60001;48.404;11.738;2023-02-15T05:46:47;97575.00;;;-0.56;88.93
31357;BME280;60001;48.404;11.738;2023-02-15T05:48:21;97566.88;;;-0.61;88.91
31357;BME280;60001;48.404;11.738;2023-02-15T05:49:53;97581.84;;;-0.55;88.38
31357;BME280;60001;48.404;11.738;2023-02-15T05:51:25;97580.06;;;-0.54;89.00
31357;BME280;60001;48.404;11.738;2023-02-15T05:52:56;97568.34;;;-0.59;88.42
31357;BME280;60001;48.404;11.738;2023-02-15T05:54:28;97574.72;;;-0.53;88.34
31357;BME280;60001;48.404;11.738;2023-02-15T05:56:03;97568.19;;;-0.57;88.83
31357;BME280;60001;48.404;11.738;2023-02-15T05:57:35;97568.06;;;-0.56;88.33
31357;BME280;60001;48.404;11.738;2023-02-15T05:59:07;97570.84;;;-0.49;88.46
31357;BME280;60001;48.404;11.738;2023-02-15T06:00:38;97572.78;;;-0.51;88.93
31357;BME280;60001;48.404;11.738;2023-02-15T06:02:10;97572.50;;;-0.48;88.74
31357;BME280;60001;48.404;11.738;2023-02-15T06:03:43;97581.59;;;-0.44;88.98
31357;BME280;60001;48.404;11.738;2023-02-15T06:05:15;97579.97;;;-0.45;88.29
31357;BME280;60001;48.404;11.738;2023-02-15T06:06:48;97581.75;;;-0.45;88.88
31357;BME280;60001;48.404;11.738;2023-02-15T06:08:20;97579.16;;;-0.45;88.01
31357;BME280;60001;48.404;11.738;2023-02-15T06:09:51;97572.28;;;-0.54;87.85
31357;BME280;60001;48.404;11.738;2023-02-15T06:11:24;97584.28;;;-0.53;88.01
31357;BME280;60001;48.404;11.738;2023-02-15T06:12:56;97586.28;;;-0.65;88.58
31357;BME280;60001;48.404;11.738;2023-02-15T06:14:28;97580.28;;;-0.66;88.26
31357;BME280;60001;48.404;11.738;2023-02-15T06:16:00;97589.19;;;-0.68;88.28
31357;BME280;60001;48.404;11.738;2023-02-15T06:17:32;97578.81;;;-0.68;88.69
31357;BME280;60001;48.404;11.738;2023-02-15T06:19:04;97580.28;;;-0.66;89.23
31357;BME280;60001;48.404;11.738;2023-02-15T06:20:36;97580.06;;;-0.72;88.70
31357;BME280;60001;48.404;11.738;2023-02-15T06:22:08;97574.59;;;-0.69;89.05
31357;BME280;60001;48.404;11.738;2023-02-15T06:23:40;97581.09;;;-0.65;89.57
31357;BME280;60001;48.404;11.738;2023-02-15T06:25:11;97584.22;;;-0.62;89.04
31357;BME280;60001;48.404;11.738;2023-02-15T06:26:45;97590.50;;;-0.64;88.74
31357;BME280;60001;48.404;11.738;2023-02-15T06:28:16;97595.34;;;-0.69;89.19
31357;BME280;60001;48.404;11.738;2023-02-15T06:29:48;97586.72;;;-0.70;88.95
31357;BME280;60001;48.404;11.738;2023-02-15T06:31:20;97606.06;;;-0.64;89.07
31357;BME280;60001;48.404;11.738;2023-02-15T06:32:52;97603.63;;;-0.66;88.67
31357;BME280;60001;48.404;11.738;2023-02-15T06:34:24;97608.09;;;-0.76;88.81
31357;BME280;60001;48.404;11.738;2023-02-15T06:35:55;97602.75;;;-0.74;89.16
31357;BME280;60001;48.404;11.738;2023-02-15T06:37:28;97608.22;;;-0.77;88.70
31357;BME280;60001;48.404;11.738;2023-02-15T06:38:59;97607.56;;;-0.79;88.58
31357;BME280;60001;48.404;11.738;2023-02-15T06:40:32;97610.97;;;-0.79;89.05
31357;BME280;60001;48.404;11.738;2023-02-15T06:42:05;97606.09;;;-0.82;88.83
31357;BME280;60001;48.404;11.738;2023-02-15T06:43:37;97602.00;;;-0.85;89.33
31357;BME280;60001;48.404;11.738;2023-02-15T06:45:10;97609.03;;;-0.77;89.15
31357;BME280;60001;48.404;11.738;2023-02-15T06:46:42;97607.78;;;-0.73;89.24
31357;BME280;60001;48.404;11.738;2023-02-15T06:48:14;97610.53;;;-0.74;88.95
31357;BME280;60001;48.404;11.738;2023-02-15T06:49:46;97613.94;;;-0.74;88.99
31357;BME280;60001;48.404;11.738;2023-02-15T06:51:18;97617.84;;;-0.70;89.29
31357;BME280;60001;48.404;11.738;2023-02-15T06:52:55;97617.41;;;-0.65;89.53
31357;BME280;60001;48.404;11.738;2023-02-15T06:54:27;97613.56;;;-0.61;89.01
31357;BME280;60001;48.404;11.738;2023-02-15T06:56:03;97619.25;;;-0.58;89.49
31357;BME280;60001;48.404;11.738;2023-02-15T06:57:38;97617.34;;;-0.56;88.76
31357;BME280;60001;48.404;11.738;2023-02-15T06:59:10;97589.19;;;-0.68;88.79
31357;BME280;60001;48.404;11.738;2023-02-15T07:00:41;97615.34;;;-0.62;88.38
31357;BME280;60001;48.404;11.738;2023-02-15T07:02:14;97617.94;;;-0.62;88.99
31357;BME280;60001;48.404;11.738;2023-02-15T07:03:46;97615.34;;;-0.62;88.92
31357;BME280;60001;48.404;11.738;2023-02-15T07:05:18;97596.28;;;-0.70;88.92
31357;BME280;60001;48.404;11.738;2023-02-15T07:06:50;97610.66;;;-0.58;88.57
31357;BME280;60001;48.404;11.738;2023-02-15T07:08:22;97604.38;;;-0.56;89.50
31357;BME280;60001;48.404;11.738;2023-02-15T07:09:54;97603.69;;;-0.58;88.82
31357;BME280;60001;48.404;11.738;2023-02-15T07:11:26;97609.78;;;-0.67;89.11
31357;BME280;60001;48.404;11.738;2023-02-15T07:13:17;97608.88;;;-0.58;89.51
31357;BME280;60001;48.404;11.738;2023-02-15T07:14:49;97604.50;;;-0.57;89.11
31357;BME280;60001;48.404;11.738;2023-02-15T07:16:21;97613.25;;;-0.58;88.97
31357;BME280;60001;48.404;11.738;2023-02-15T07:17:53;97603.41;;;-0.72;88.16
31357;BME280;60001;48.404;11.738;2023-02-15T07:19:25;97615.13;;;-0.68;88.65
31357;BME280;60001;48.404;11.738;2023-02-15T07:20:57;97608.38;;;-0.79;88.11
31357;BME280;60001;48.404;11.738;2023-02-15T07:22:29;97607.56;;;-0.79;88.49
31357;BME280;60001;48.404;11.738;2023-02-15T07:24:01;97608.69;;;-0.82;88.90
31357;BME280;60001;48.404;11.738;2023-02-15T07:25:33;97601.56;;;-0.80;89.02
31357;BME280;60001;48.404;11.738;2023-02-15T07:27:06;97603.84;;;-0.77;88.89
31357;BME280;60001;48.404;11.738;2023-02-15T07:28:39;97605.13;;;-0.81;89.15
31357;BME280;60001;48.404;11.738;2023-02-15T07:30:14;97601.25;;;-0.77;88.74
31357;BME280;60001;48.404;11.738;2023-02-15T07:31:46;97599.50;;;-0.76;88.60
31357;BME280;60001;48.404;11.738;2023-02-15T07:33:17;97603.72;;;-0.75;89.18
31357;BME280;60001;48.404;11.738;2023-02-15T07:34:59;97595.47;;;-0.71;89.29
31357;BME280;60001;48.404;11.738;2023-02-15T07:36:31;97597.94;;;-0.69;89.19
31357;BME280;60001;48.404;11.738;2023-02-15T07:38:03;97595.69;;;-0.64;89.45
31357;BME280;60001;48.404;11.738;2023-02-15T07:39:35;97595.69;;;-0.64;88.97
31357;BME280;60001;48.404;11.738;2023-02-15T07:41:10;97595.09;;;-0.58;89.61
31357;BME280;60001;48.404;11.738;2023-02-15T07:42:42;97596.72;;;-0.57;89.26
31357;BME280;60001;48.404;11.738;2023-02-15T07:44:15;97599.03;;;-0.54;89.04
31357;BME280;60001;48.404;11.738;2023-02-15T07:45:47;97594.72;;;-0.63;89.28
31357;BME280;60001;48.404;11.738;2023-02-15T07:47:19;97591.41;;;-0.56;88.81
31357;BME280;60001;48.404;11.738;2023-02-15T07:48:52;97596.28;;;-0.52;88.94
31357;BME280;60001;48.404;11.738;2023-02-15T07:50:23;97600.50;;;-0.51;88.83
31357;BME280;60001;48.404;11.738;2023-02-15T07:51:55;97589.63;;;-0.55;88.61
31357;BME280;60001;48.404;11.738;2023-02-15T07:53:28;97590.13;;;-0.51;88.98
31357;BME280;60001;48.404;11.738;2023-02-15T07:55:08;97603.09;;;-0.51;88.58
31357;BME280;60001;48.404;11.738;2023-02-15T07:56:43;97595.03;;;-0.48;88.60
31357;BME280;60001;48.404;11.738;2023-02-15T07:58:15;97589.69;;;-0.47;88.75
31357;BME280;60001;48.404;11.738;2023-02-15T07:59:51;97591.69;;;-0.41;88.80
31357;BME280;60001;48.404;11.738;2023-02-15T08:01:25;97583.09;;;-0.41;88.87
31357;BME280;60001;48.404;11.738;2023-02-15T08:02:57;97596.19;;;-0.43;88.75
31357;BME280;60001;48.404;11.738;2023-02-15T08:04:47;97594.78;;;-0.37;88.44
31357;BME280;60001;48.404;11.738;2023-02-15T08:06:20;97596.88;;;-0.41;88.42
31357;BME280;60001;48.404;11.738;2023-02-15T08:07:52;97599.16;;;-0.38;89.05
31357;BME280;60001;48.404;11.738;2023-02-15T08:09:24;97588.13;;;-0.40;88.77
31357;BME280;60001;48.404;11.738;2023-02-15T08:11:01;97596.72;;;-0.39;89.33
31357;BME280;60001;48.404;11.738;2023-02-15T08:12:51;97591.81;;;-0.42;88.55
31357;BME280;60001;48.404;11.738;2023-02-15T08:14:23;97586.50;;;-0.41;88.46
31357;BME280;60001;48.404;11.738;2023-02-15T08:15:57;97594.56;;;-0.44;88.56
31357;BME280;60001;48.404;11.738;2023-02-15T08:17:28;97593.31;;;-0.40;89.05
31357;BME280;60001;48.404;11.738;2023-02-15T08:19:02;97585.69;;;-0.41;89.36
31357;BME280;60001;48.404;11.738;2023-02-15T08:20:34;97590.78;;;-0.32;88.52
31357;BME280;60001;48.404;11.738;2023-02-15T08:22:11;97584.44;;;-0.55;87.50
31357;BME280;60001;48.404;11.738;2023-02-15T08:23:44;97588.34;;;-0.51;88.18